sensor_id;sensor_type;location;lat;lon;timestamp;P1;durP1;ratioP1;P2;durP2;ratioP2
14015;SDS011;7083;48.854;9.158;2022-10-16T00:01:14;496.83;;;473.07;;
14015;SDS011;7083;48.854;9.158;2022-10-16T00:03:42;499.43;;;475.53;;
14015;SDS011;7083;48.854;9.158;2022-10-16T00:06:10;497.53;;;474.13;;
14015;SDS011;7083;48.854;9.158;2022-10-16T00:08:37;500.37;;;476.60;;
14015;SDS011;7083;48.854;9.158;2022-10-16T00:11:05;504.33;;;480.60;;
14015;SDS011;7083;48.854;9.158;2022-10-16T00:13:35;519.40;;;494.50;;
14015;SDS011;7083;48.854;9.158;2022-10-16T00:16:03;500.87;;;477.17;;
14015;SDS011;7083;48.854;9.158;2022-10-16T00:18:30;504.43;;;480.30;;
14015;SDS011;7083;48.854;9.158;2022-10-16T00:21:01;513.07;;;488.23;;
14015;SDS011;7083;48.854;9.158;2022-10-16T00:23:29;496.30;;;472.87;;
14015;SDS011;7083;48.854;9.158;2022-10-16T00:25:56;500.13;;;476.53;;
14015;SDS011;7083;48.854;9.158;2022-10-16T00:28:23;504.87;;;480.63;;
14015;SDS011;7083;48.854;9.158;2022-10-16T00:30:52;498.47;;;474.67;;
14015;SDS011;7083;48.854;9.158;2022-10-16T00:33:19;495.67;;;472.40;;
14015;SDS011;7083;48.854;9.158;2022-10-16T00:35:46;496.43;;;472.73;;
14015;SDS011;7083;48.854;9.158;2022-10-16T00:38:13;482.67;;;460.03;;
14015;SDS011;7083;48.854;9.158;2022-10-16T00:40:40;487.30;;;464.30;;
14015;SDS011;7083;48.854;9.158;2022-10-16T00:43:09;483.53;;;460.83;;
14015;SDS011;7083;48.854;9.158;2022-10-16T00:45:39;465.67;;;443.70;;
14015;SDS011;7083;48.854;9.158;2022-10-16T00:48:07;467.33;;;445.07;;
14015;SDS011;7083;48.854;9.158;2022-10-16T00:50:38;454.50;;;433.67;;
14015;SDS011;7083;48.854;9.158;2022-10-16T00:53:08;455.07;;;434.30;;
14015;SDS011;7083;48.854;9.158;2022-10-16T00:55:36;468.57;;;446.70;;
14015;SDS011;7083;48.854;9.158;2022-10-16T00:58:03;451.03;;;430.07;;
14015;SDS011;7083;48.854;9.158;2022-10-16T01:00:29;455.57;;;434.10;;
14015;SDS011;7083;48.854;9.158;2022-10-16T01:02:57;448.57;;;427.97;;
14015;SDS011;7083;48.854;9.158;2022-10-16T01:05:28;445.90;;;425.60;;
14015;SDS011;7083;48.854;9.158;2022-10-16T01:08:00;419.93;;;401.17;;
14015;SDS011;7083;48.854;9.158;2022-10-16T01:10:35;418.33;;;399.60;;
14015;SDS011;7083;48.854;9.158;2022-10-16T01:13:06;438.83;;;419.00;;
14015;SDS011;7083;48.854;9.158;2022-10-16T01:15:36;441.17;;;421.03;;
14015;SDS011;7083;48.854;9.158;2022-10-16T01:18:08;444.00;;;423.70;;
14015;SDS011;7083;48.854;9.158;2022-10-16T01:20:44;454.63;;;433.70;;
14015;SDS011;7083;48.854;9.158;2022-10-16T01:23:21;451.80;;;430.67;;
14015;SDS011;7083;48.854;9.158;2022-10-16T01:28:56;452.47;;;431.70;;
14015;SDS011;7083;48.854;9.158;2022-10-16T01:31:27;456.73;;;435.87;;
14015;SDS011;7083;48.854;9.158;2022-10-16T01:33:58;465.93;;;444.63;;
14015;SDS011;7083;48.854;9.158;2022-10-16T01:36:31;463.53;;;442.17;;
14015;SDS011;7083;48.854;9.158;2022-10-16T01:39:03;472.87;;;450.53;;
14015;SDS011;7083;48.854;9.158;2022-10-16T01:41:31;475.97;;;453.40;;
14015;SDS011;7083;48.854;9.158;2022-10-16T01:44:04;468.27;;;446.33;;
14015;SDS011;7083;48.854;9.158;2022-10-16T01:46:36;453.90;;;432.93;;
14015;SDS011;7083;48.854;9.158;2022-10-16T01:49:05;456.17;;;434.97;;
14015;SDS011;7083;48.854;9.158;2022-10-16T01:51:34;454.40;;;433.60;;
14015;SDS011;7083;48.854;9.158;2022-10-16T01:54:02;454.47;;;433.67;;
14015;SDS011;7083;48.854;9.158;2022-10-16T01:56:33;430.53;;;410.90;;
14015;SDS011;7083;48.854;9.158;2022-10-16T01:59:01;428.43;;;409.27;;
14015;SDS011;7083;48.854;9.158;2022-10-16T02:01:33;415.97;;;397.20;;
14015;SDS011;7083;48.854;9.158;2022-10-16T02:04:04;414.37;;;395.60;;
14015;SDS011;7083;48.854;9.158;2022-10-16T02:06:37;428.30;;;408.80;;
14015;SDS011;7083;48.854;9.158;2022-10-16T02:09:04;455.37;;;434.33;;
14015;SDS011;7083;48.854;9.158;2022-10-16T02:11:31;436.70;;;416.87;;
14015;SDS011;7083;48.854;9.158;2022-10-16T02:13:58;448.00;;;427.50;;
14015;SDS011;7083;48.854;9.158;2022-10-16T02:16:34;452.73;;;432.00;;
14015;SDS011;7083;48.854;9.158;2022-10-16T02:19:02;455.03;;;434.47;;
14015;SDS011;7083;48.854;9.158;2022-10-16T02:21:32;479.07;;;456.80;;
14015;SDS011;7083;48.854;9.158;2022-10-16T02:24:08;466.53;;;445.27;;
14015;SDS011;7083;48.854;9.158;2022-10-16T02:26:41;472.57;;;450.73;;
14015;SDS011;7083;48.854;9.158;2022-10-16T02:29:12;484.17;;;461.57;;
14015;SDS011;7083;48.854;9.158;2022-10-16T02:31:43;490.77;;;467.63;;
14015;SDS011;7083;48.854;9.158;2022-10-16T02:34:13;484.10;;;461.40;;
14015;SDS011;7083;48.854;9.158;2022-10-16T02:36:42;499.00;;;475.63;;
14015;SDS011;7083;48.854;9.158;2022-10-16T02:39:11;493.53;;;470.70;;
14015;SDS011;7083;48.854;9.158;2022-10-16T02:41:38;503.37;;;479.70;;
14015;SDS011;7083;48.854;9.158;2022-10-16T02:44:04;510.40;;;486.17;;
14015;SDS011;7083;48.854;9.158;2022-10-16T02:46:31;520.83;;;495.70;;
14015;SDS011;7083;48.854;9.158;2022-10-16T02:48:59;519.53;;;495.03;;
14015;SDS011;7083;48.854;9.158;2022-10-16T02:51:26;516.40;;;491.73;;
14015;SDS011;7083;48.854;9.158;2022-10-16T02:53:53;524.37;;;498.80;;
14015;SDS011;7083;48.854;9.158;2022-10-16T02:56:20;506.07;;;482.50;;
14015;SDS011;7083;48.854;9.158;2022-10-16T02:58:46;511.60;;;487.57;;
14015;SDS011;7083;48.854;9.158;2022-10-16T03:01:13;514.47;;;490.17;;
14015;SDS011;7083;48.854;9.158;2022-10-16T03:03:41;513.53;;;488.93;;
14015;SDS011;7083;48.854;9.158;2022-10-16T03:06:09;503.87;;;480.23;;
14015;SDS011;7083;48.854;9.158;2022-10-16T03:08:36;509.23;;;485.10;;
14015;SDS011;7083;48.854;9.158;2022-10-16T03:11:03;496.13;;;472.80;;
14015;SDS011;7083;48.854;9.158;2022-10-16T03:13:30;502.73;;;478.90;;
14015;SDS011;7083;48.854;9.158;2022-10-16T03:15:56;505.33;;;481.50;;
14015;SDS011;7083;48.854;9.158;2022-10-16T03:18:23;498.70;;;475.10;;
14015;SDS011;7083;48.854;9.158;2022-10-16T03:20:50;492.63;;;469.80;;
14015;SDS011;7083;48.854;9.158;2022-10-16T03:23:18;501.93;;;478.53;;
14015;SDS011;7083;48.854;9.158;2022-10-16T03:25:45;503.87;;;479.97;;
14015;SDS011;7083;48.854;9.158;2022-10-16T03:28:11;493.67;;;470.27;;
14015;SDS011;7083;48.854;9.158;2022-10-16T03:30:38;484.17;;;461.63;;
14015;SDS011;7083;48.854;9.158;2022-10-16T03:33:05;473.33;;;451.17;;
14015;SDS011;7083;48.854;9.158;2022-10-16T03:35:32;471.73;;;449.53;;
14015;SDS011;7083;48.854;9.158;2022-10-16T03:37:59;464.73;;;443.13;;
14015;SDS011;7083;48.854;9.158;2022-10-16T03:40:27;468.13;;;446.07;;
14015;SDS011;7083;48.854;9.158;2022-10-16T03:42:54;455.07;;;434.03;;
14015;SDS011;7083;48.854;9.158;2022-10-16T03:45:22;462.87;;;441.60;;
14015;SDS011;7083;48.854;9.158;2022-10-16T03:47:49;465.50;;;443.70;;
14015;SDS011;7083;48.854;9.158;2022-10-16T03:50:15;451.87;;;430.60;;
14015;SDS011;7083;48.854;9.158;2022-10-16T03:52:42;438.37;;;418.07;;
14015;SDS011;7083;48.854;9.158;2022-10-16T03:55:09;406.73;;;388.60;;
14015;SDS011;7083;48.854;9.158;2022-10-16T03:57:37;401.77;;;383.27;;
14015;SDS011;7083;48.854;9.158;2022-10-16T04:00:04;407.10;;;388.23;;
14015;SDS011;7083;48.854;9.158;2022-10-16T04:02:31;398.93;;;381.23;;
14015;SDS011;7083;48.854;9.158;2022-10-16T04:04:58;410.93;;;392.00;;
14015;SDS011;7083;48.854;9.158;2022-10-16T04:07:25;418.60;;;399.47;;
14015;SDS011;7083;48.854;9.158;2022-10-16T04:09:52;411.70;;;393.07;;
14015;SDS011;7083;48.854;9.158;2022-10-16T04:12:18;413.80;;;395.23;;
14015;SDS011;7083;48.854;9.158;2022-10-16T04:14:46;417.30;;;397.87;;
14015;SDS011;7083;48.854;9.158;2022-10-16T04:17:13;410.47;;;391.97;;
14015;SDS011;7083;48.854;9.158;2022-10-16T04:19:40;417.97;;;398.67;;
14015;SDS011;7083;48.854;9.158;2022-10-16T04:22:06;408.57;;;389.93;;
14015;SDS011;7083;48.854;9.158;2022-10-16T04:24:33;404.30;;;385.73;;
14015;SDS011;7083;48.854;9.158;2022-10-16T04:27:00;395.10;;;376.87;;
14015;SDS011;7083;48.854;9.158;2022-10-16T04:29:27;399.73;;;381.00;;
14015;SDS011;7083;48.854;9.158;2022-10-16T04:31:55;397.43;;;378.57;;
14015;SDS011;7083;48.854;9.158;2022-10-16T04:34:21;395.70;;;377.70;;
14015;SDS011;7083;48.854;9.158;2022-10-16T04:36:48;392.97;;;375.07;;
14015;SDS011;7083;48.854;9.158;2022-10-16T04:39:15;377.87;;;360.30;;
14015;SDS011;7083;48.854;9.158;2022-10-16T04:41:42;371.17;;;353.60;;
14015;SDS011;7083;48.854;9.158;2022-10-16T04:44:09;371.50;;;354.67;;
14015;SDS011;7083;48.854;9.158;2022-10-16T04:46:35;370.37;;;353.47;;
14015;SDS011;7083;48.854;9.158;2022-10-16T04:49:03;382.53;;;363.23;;
14015;SDS011;7083;48.854;9.158;2022-10-16T04:51:30;375.90;;;357.80;;
14015;SDS011;7083;48.854;9.158;2022-10-16T04:53:57;372.80;;;355.67;;
14015;SDS011;7083;48.854;9.158;2022-10-16T04:56:24;371.70;;;354.33;;
14015;SDS011;7083;48.854;9.158;2022-10-16T04:58:51;377.30;;;360.07;;
14015;SDS011;7083;48.854;9.158;2022-10-16T05:01:17;376.10;;;359.50;;
14015;SDS011;7083;48.854;9.158;2022-10-16T05:03:44;376.97;;;359.50;;
14015;SDS011;7083;48.854;9.158;2022-10-16T05:06:12;375.43;;;358.43;;
14015;SDS011;7083;48.854;9.158;2022-10-16T05:08:39;359.60;;;343.60;;
14015;SDS011;7083;48.854;9.158;2022-10-16T05:11:06;371.53;;;354.93;;
14015;SDS011;7083;48.854;9.158;2022-10-16T05:13:32;375.37;;;358.97;;
14015;SDS011;7083;48.854;9.158;2022-10-16T05:15:59;373.57;;;356.60;;
14015;SDS011;7083;48.854;9.158;2022-10-16T05:18:26;368.83;;;352.70;;
14015;SDS011;7083;48.854;9.158;2022-10-16T05:20:53;374.70;;;358.27;;
14015;SDS011;7083;48.854;9.158;2022-10-16T05:23:21;389.00;;;371.70;;
14015;SDS011;7083;48.854;9.158;2022-10-16T05:25:51;389.03;;;371.87;;
14015;SDS011;7083;48.854;9.158;2022-10-16T05:28:19;392.20;;;375.20;;
14015;SDS011;7083;48.854;9.158;2022-10-16T05:30:46;382.37;;;365.77;;
14015;SDS011;7083;48.854;9.158;2022-10-16T05:33:13;394.67;;;377.13;;
14015;SDS011;7083;48.854;9.158;2022-10-16T05:35:39;386.73;;;369.83;;
14015;SDS011;7083;48.854;9.158;2022-10-16T05:38:06;385.37;;;368.43;;
14015;SDS011;7083;48.854;9.158;2022-10-16T05:40:34;386.77;;;369.53;;
14015;SDS011;7083;48.854;9.158;2022-10-16T05:43:01;387.10;;;369.90;;
14015;SDS011;7083;48.854;9.158;2022-10-16T05:45:28;384.07;;;367.27;;
14015;SDS011;7083;48.854;9.158;2022-10-16T05:47:54;379.83;;;363.20;;
14015;SDS011;7083;48.854;9.158;2022-10-16T05:50:21;365.37;;;349.57;;
14015;SDS011;7083;48.854;9.158;2022-10-16T05:52:48;361.40;;;345.63;;
14015;SDS011;7083;48.854;9.158;2022-10-16T05:55:15;361.60;;;345.90;;
14015;SDS011;7083;48.854;9.158;2022-10-16T05:57:43;362.53;;;346.57;;
14015;SDS011;7083;48.854;9.158;2022-10-16T06:00:10;359.67;;;343.97;;
14015;SDS011;7083;48.854;9.158;2022-10-16T06:02:37;364.13;;;348.10;;
14015;SDS011;7083;48.854;9.158;2022-10-16T06:05:04;350.10;;;334.77;;
14015;SDS011;7083;48.854;9.158;2022-10-16T06:07:33;353.13;;;337.53;;
14015;SDS011;7083;48.854;9.158;2022-10-16T06:10:00;352.13;;;336.60;;
14015;SDS011;7083;48.854;9.158;2022-10-16T06:12:27;356.67;;;341.17;;
14015;SDS011;7083;48.854;9.158;2022-10-16T06:14:55;369.73;;;353.30;;
14015;SDS011;7083;48.854;9.158;2022-10-16T06:17:22;362.03;;;345.77;;
14015;SDS011;7083;48.854;9.158;2022-10-16T06:19:49;358.50;;;343.07;;
14015;SDS011;7083;48.854;9.158;2022-10-16T06:22:15;373.50;;;357.37;;
14015;SDS011;7083;48.854;9.158;2022-10-16T06:24:42;369.17;;;352.87;;
14015;SDS011;7083;48.854;9.158;2022-10-16T06:27:09;383.27;;;366.27;;
14015;SDS011;7083;48.854;9.158;2022-10-16T06:29:36;376.67;;;359.50;;
14015;SDS011;7083;48.854;9.158;2022-10-16T06:32:04;370.57;;;354.13;;
14015;SDS011;7083;48.854;9.158;2022-10-16T06:34:30;364.67;;;348.27;;
14015;SDS011;7083;48.854;9.158;2022-10-16T06:36:57;366.90;;;350.47;;
14015;SDS011;7083;48.854;9.158;2022-10-16T06:39:24;360.03;;;343.80;;
14015;SDS011;7083;48.854;9.158;2022-10-16T06:41:50;384.07;;;367.03;;
14015;SDS011;7083;48.854;9.158;2022-10-16T06:44:17;369.83;;;353.27;;
14015;SDS011;7083;48.854;9.158;2022-10-16T06:46:44;369.77;;;353.00;;
14015;SDS011;7083;48.854;9.158;2022-10-16T06:49:12;367.67;;;351.33;;
14015;SDS011;7083;48.854;9.158;2022-10-16T06:51:46;376.37;;;359.30;;
14015;SDS011;7083;48.854;9.158;2022-10-16T06:54:12;370.33;;;353.10;;
14015;SDS011;7083;48.854;9.158;2022-10-16T06:56:40;385.27;;;367.77;;
14015;SDS011;7083;48.854;9.158;2022-10-16T06:59:07;399.63;;;381.00;;
14015;SDS011;7083;48.854;9.158;2022-10-16T07:01:34;397.70;;;379.43;;
14015;SDS011;7083;48.854;9.158;2022-10-16T07:04:01;391.47;;;373.37;;
14015;SDS011;7083;48.854;9.158;2022-10-16T07:06:30;410.43;;;391.83;;
14015;SDS011;7083;48.854;9.158;2022-10-16T07:09:00;427.93;;;408.33;;
14015;SDS011;7083;48.854;9.158;2022-10-16T07:11:28;456.03;;;434.47;;
14015;SDS011;7083;48.854;9.158;2022-10-16T07:13:55;504.17;;;479.63;;
14015;SDS011;7083;48.854;9.158;2022-10-16T07:16:22;550.33;;;522.57;;
14015;SDS011;7083;48.854;9.158;2022-10-16T07:18:50;577.20;;;547.37;;
14015;SDS011;7083;48.854;9.158;2022-10-16T07:21:22;607.80;;;575.90;;
14015;SDS011;7083;48.854;9.158;2022-10-16T07:23:52;616.53;;;584.37;;
14015;SDS011;7083;48.854;9.158;2022-10-16T07:26:19;627.03;;;593.87;;
14015;SDS011;7083;48.854;9.158;2022-10-16T07:28:46;622.70;;;589.53;;
14015;SDS011;7083;48.854;9.158;2022-10-16T07:31:13;630.93;;;597.23;;
14015;SDS011;7083;48.854;9.158;2022-10-16T07:33:41;646.37;;;611.20;;
14015;SDS011;7083;48.854;9.158;2022-10-16T07:36:10;620.17;;;586.80;;
14015;SDS011;7083;48.854;9.158;2022-10-16T07:38:37;634.93;;;600.87;;
14015;SDS011;7083;48.854;9.158;2022-10-16T07:41:06;639.10;;;604.60;;
14015;SDS011;7083;48.854;9.158;2022-10-16T07:43:35;628.50;;;594.87;;
14015;SDS011;7083;48.854;9.158;2022-10-16T07:46:01;633.83;;;600.00;;
14015;SDS011;7083;48.854;9.158;2022-10-16T07:48:29;649.80;;;615.17;;
14015;SDS011;7083;48.854;9.158;2022-10-16T07:50:57;649.30;;;614.13;;
14015;SDS011;7083;48.854;9.158;2022-10-16T07:53:25;659.83;;;623.50;;
14015;SDS011;7083;48.854;9.158;2022-10-16T07:55:52;664.70;;;627.50;;
14015;SDS011;7083;48.854;9.158;2022-10-16T07:58:24;666.93;;;629.80;;
14015;SDS011;7083;48.854;9.158;2022-10-16T08:00:50;680.83;;;643.00;;
14015;SDS011;7083;48.854;9.158;2022-10-16T08:03:17;669.17;;;632.47;;
14015;SDS011;7083;48.854;9.158;2022-10-16T08:05:44;667.93;;;630.47;;
14015;SDS011;7083;48.854;9.158;2022-10-16T08:08:11;649.23;;;613.37;;
14015;SDS011;7083;48.854;9.158;2022-10-16T08:10:40;669.37;;;631.83;;
14015;SDS011;7083;48.854;9.158;2022-10-16T08:13:06;658.23;;;621.37;;
14015;SDS011;7083;48.854;9.158;2022-10-16T08:15:34;491.57;;;467.00;;
14015;SDS011;7083;48.854;9.158;2022-10-16T08:18:02;406.47;;;386.03;;
14015;SDS011;7083;48.854;9.158;2022-10-16T08:20:30;347.37;;;329.67;;
14015;SDS011;7083;48.854;9.158;2022-10-16T08:22:58;383.17;;;364.27;;
14015;SDS011;7083;48.854;9.158;2022-10-16T08:25:25;418.17;;;397.53;;
14015;SDS011;7083;48.854;9.158;2022-10-16T08:27:53;333.13;;;316.20;;
14015;SDS011;7083;48.854;9.158;2022-10-16T08:30:20;347.60;;;330.83;;
14015;SDS011;7083;48.854;9.158;2022-10-16T08:32:49;283.23;;;268.97;;
14015;SDS011;7083;48.854;9.158;2022-10-16T08:35:16;312.03;;;296.23;;
14015;SDS011;7083;48.854;9.158;2022-10-16T08:37:43;352.37;;;334.27;;
14015;SDS011;7083;48.854;9.158;2022-10-16T08:40:13;411.63;;;390.97;;
14015;SDS011;7083;48.854;9.158;2022-10-16T08:42:47;430.70;;;408.77;;
14015;SDS011;7083;48.854;9.158;2022-10-16T08:45:29;430.40;;;408.60;;
14015;SDS011;7083;48.854;9.158;2022-10-16T08:48:21;465.20;;;441.47;;
14015;SDS011;7083;48.854;9.158;2022-10-16T08:54:28;580.67;;;548.63;;
14015;SDS011;7083;48.854;9.158;2022-10-16T08:57:16;628.63;;;591.57;;
14015;SDS011;7083;48.854;9.158;2022-10-16T08:59:57;629.57;;;592.60;;
14015;SDS011;7083;48.854;9.158;2022-10-16T09:02:49;745.73;;;697.47;;
14015;SDS011;7083;48.854;9.158;2022-10-16T09:08:53;772.90;;;721.40;;
14015;SDS011;7083;48.854;9.158;2022-10-16T09:11:51;810.27;;;755.73;;
14015;SDS011;7083;48.854;9.158;2022-10-16T09:14:42;778.17;;;726.00;;
14015;SDS011;7083;48.854;9.158;2022-10-16T09:17:37;803.87;;;749.30;;
14015;SDS011;7083;48.854;9.158;2022-10-16T09:20:22;797.13;;;742.37;;
14015;SDS011;7083;48.854;9.158;2022-10-16T09:23:14;811.63;;;756.20;;
14015;SDS011;7083;48.854;9.158;2022-10-16T09:26:03;759.50;;;709.07;;
14015;SDS011;7083;48.854;9.158;2022-10-16T09:29:02;700.40;;;656.37;;
14015;SDS011;7083;48.854;9.158;2022-10-16T09:34:59;649.53;;;610.23;;
14015;SDS011;7083;48.854;9.158;2022-10-16T09:37:53;628.80;;;591.50;;
14015;SDS011;7083;48.854;9.158;2022-10-16T09:40:37;583.47;;;549.73;;
14015;SDS011;7083;48.854;9.158;2022-10-16T09:49:19;512.60;;;484.17;;
14015;SDS011;7083;48.854;9.158;2022-10-16T09:51:51;543.37;;;512.73;;
14015;SDS011;7083;48.854;9.158;2022-10-16T09:54:59;552.07;;;521.10;;
14015;SDS011;7083;48.854;9.158;2022-10-16T09:57:50;603.80;;;568.63;;
14015;SDS011;7083;48.854;9.158;2022-10-16T10:00:17;671.70;;;631.07;;
14015;SDS011;7083;48.854;9.158;2022-10-16T10:05:48;790.13;;;737.80;;
14015;SDS011;7083;48.854;9.158;2022-10-16T10:08:21;874.83;;;813.73;;
14015;SDS011;7083;48.854;9.158;2022-10-16T10:10:48;927.50;;;861.37;;
14015;SDS011;7083;48.854;9.158;2022-10-16T10:13:18;945.67;;;877.00;;
14015;SDS011;7083;48.854;9.158;2022-10-16T10:15:47;932.37;;;865.03;;
14015;SDS011;7083;48.854;9.158;2022-10-16T10:18:15;925.10;;;857.80;;
14015;SDS011;7083;48.854;9.158;2022-10-16T10:20:44;991.30;;;916.30;;
14015;SDS011;7083;48.854;9.158;2022-10-16T10:23:19;1003.80;;;928.17;;
14015;SDS011;7083;48.854;9.158;2022-10-16T10:25:49;1026.07;;;947.53;;
14015;SDS011;7083;48.854;9.158;2022-10-16T10:28:33;1080.20;;;993.33;;
14015;SDS011;7083;48.854;9.158;2022-10-16T10:31:11;1202.27;;;999.90;;
14015;SDS011;7083;48.854;9.158;2022-10-16T10:33:43;1361.17;;;999.90;;
14015;SDS011;7083;48.854;9.158;2022-10-16T10:36:26;1943.70;;;999.90;;
14015;SDS011;7083;48.854;9.158;2022-10-16T10:38:57;1653.00;;;999.90;;
14015;SDS011;7083;48.854;9.158;2022-10-16T10:41:39;1537.23;;;999.90;;
14015;SDS011;7083;48.854;9.158;2022-10-16T10:44:23;1716.97;;;999.90;;
14015;SDS011;7083;48.854;9.158;2022-10-16T10:47:01;1999.90;;;999.90;;
14015;SDS011;7083;48.854;9.158;2022-10-16T10:49:40;1999.90;;;999.90;;
14015;SDS011;7083;48.854;9.158;2022-10-16T10:52:25;1999.90;;;999.90;;
14015;SDS011;7083;48.854;9.158;2022-10-16T10:55:16;1999.90;;;999.90;;
14015;SDS011;7083;48.854;9.158;2022-10-16T10:57:54;1999.90;;;999.90;;
14015;SDS011;7083;48.854;9.158;2022-10-16T11:00:35;1999.90;;;999.90;;
14015;SDS011;7083;48.854;9.158;2022-10-16T11:03:13;1999.90;;;999.90;;
14015;SDS011;7083;48.854;9.158;2022-10-16T11:05:54;1999.90;;;999.90;;
14015;SDS011;7083;48.854;9.158;2022-10-16T11:08:26;1999.90;;;997.20;;
14015;SDS011;7083;48.854;9.158;2022-10-16T11:10:59;1999.90;;;999.90;;
14015;SDS011;7083;48.854;9.158;2022-10-16T11:13:30;1999.90;;;999.90;;
14015;SDS011;7083;48.854;9.158;2022-10-16T11:16:03;1999.90;;;999.90;;
14015;SDS011;7083;48.854;9.158;2022-10-16T11:18:42;1959.03;;;463.93;;
14015;SDS011;7083;48.854;9.158;2022-10-16T11:21:15;1999.90;;;732.80;;
14015;SDS011;7083;48.854;9.158;2022-10-16T11:23:46;1999.90;;;836.23;;
14015;SDS011;7083;48.854;9.158;2022-10-16T11:26:18;1999.90;;;966.60;;
14015;SDS011;7083;48.854;9.158;2022-10-16T11:28:48;1999.90;;;999.90;;
14015;SDS011;7083;48.854;9.158;2022-10-16T11:31:19;1999.90;;;999.90;;
14015;SDS011;7083;48.854;9.158;2022-10-16T11:33:54;1999.90;;;818.20;;
14015;SDS011;7083;48.854;9.158;2022-10-16T11:36:31;1999.90;;;999.90;;
14015;SDS011;7083;48.854;9.158;2022-10-16T11:39:03;1999.90;;;808.07;;
14015;SDS011;7083;48.854;9.158;2022-10-16T11:41:36;1068.90;;;227.53;;
14015;SDS011;7083;48.854;9.158;2022-10-16T11:44:14;1999.90;;;823.37;;
14015;SDS011;7083;48.854;9.158;2022-10-16T11:46:50;1999.90;;;999.90;;
14015;SDS011;7083;48.854;9.158;2022-10-16T11:49:25;1999.90;;;848.30;;
14015;SDS011;7083;48.854;9.158;2022-10-16T11:51:56;1999.90;;;999.90;;
14015;SDS011;7083;48.854;9.158;2022-10-16T11:54:32;1999.90;;;999.90;;
14015;SDS011;7083;48.854;9.158;2022-10-16T11:57:07;1999.90;;;999.90;;
14015;SDS011;7083;48.854;9.158;2022-10-16T11:59:40;1999.90;;;999.90;;
14015;SDS011;7083;48.854;9.158;2022-10-16T12:02:25;1999.90;;;999.90;;
14015;SDS011;7083;48.854;9.158;2022-10-16T12:05:01;1999.90;;;999.90;;
14015;SDS011;7083;48.854;9.158;2022-10-16T12:07:38;1999.90;;;999.90;;
14015;SDS011;7083;48.854;9.158;2022-10-16T12:10:17;1999.90;;;999.90;;
14015;SDS011;7083;48.854;9.158;2022-10-16T12:12:46;1890.77;;;800.80;;
14015;SDS011;7083;48.854;9.158;2022-10-16T12:15:20;1894.07;;;809.97;;
14015;SDS011;7083;48.854;9.158;2022-10-16T12:17:51;1999.90;;;999.90;;
14015;SDS011;7083;48.854;9.158;2022-10-16T12:20:26;1999.90;;;999.90;;
14015;SDS011;7083;48.854;9.158;2022-10-16T12:22:56;1999.90;;;840.03;;
14015;SDS011;7083;48.854;9.158;2022-10-16T12:25:26;1999.90;;;950.80;;
14015;SDS011;7083;48.854;9.158;2022-10-16T12:27:55;1999.90;;;999.90;;
14015;SDS011;7083;48.854;9.158;2022-10-16T12:30:24;1999.90;;;913.70;;
14015;SDS011;7083;48.854;9.158;2022-10-16T12:32:54;1999.90;;;693.90;;
14015;SDS011;7083;48.854;9.158;2022-10-16T12:35:22;1999.90;;;850.93;;
14015;SDS011;7083;48.854;9.158;2022-10-16T12:37:52;1846.97;;;808.80;;
14015;SDS011;7083;48.854;9.158;2022-10-16T12:40:27;1999.90;;;999.90;;
14015;SDS011;7083;48.854;9.158;2022-10-16T12:42:56;1999.90;;;999.90;;
14015;SDS011;7083;48.854;9.158;2022-10-16T12:45:25;1999.90;;;999.90;;
14015;SDS011;7083;48.854;9.158;2022-10-16T12:47:55;1999.90;;;999.90;;
14015;SDS011;7083;48.854;9.158;2022-10-16T12:50:24;1999.90;;;999.90;;
14015;SDS011;7083;48.854;9.158;2022-10-16T12:52:53;1999.90;;;999.90;;
14015;SDS011;7083;48.854;9.158;2022-10-16T12:55:21;1999.90;;;999.90;;
14015;SDS011;7083;48.854;9.158;2022-10-16T12:57:55;1999.90;;;999.90;;
14015;SDS011;7083;48.854;9.158;2022-10-16T13:00:43;1999.90;;;999.90;;
14015;SDS011;7083;48.854;9.158;2022-10-16T13:03:36;1999.90;;;999.90;;
14015;SDS011;7083;48.854;9.158;2022-10-16T13:06:33;1999.90;;;999.90;;
14015;SDS011;7083;48.854;9.158;2022-10-16T13:09:17;1999.90;;;999.90;;
14015;SDS011;7083;48.854;9.158;2022-10-16T13:11:59;1999.90;;;999.90;;
14015;SDS011;7083;48.854;9.158;2022-10-16T13:17:42;1999.90;;;999.90;;
14015;SDS011;7083;48.854;9.158;2022-10-16T13:20:19;1999.90;;;999.90;;
14015;SDS011;7083;48.854;9.158;2022-10-16T13:22:55;1999.90;;;999.90;;
14015;SDS011;7083;48.854;9.158;2022-10-16T13:25:31;1999.90;;;999.90;;
14015;SDS011;7083;48.854;9.158;2022-10-16T13:28:08;1999.90;;;999.90;;
14015;SDS011;7083;48.854;9.158;2022-10-16T13:30:39;1999.90;;;999.90;;
14015;SDS011;7083;48.854;9.158;2022-10-16T13:33:12;1999.90;;;999.90;;
14015;SDS011;7083;48.854;9.158;2022-10-16T13:35:48;1999.90;;;999.90;;
14015;SDS011;7083;48.854;9.158;2022-10-16T13:38:17;1999.90;;;999.90;;
14015;SDS011;7083;48.854;9.158;2022-10-16T13:40:48;1999.90;;;999.90;;
14015;SDS011;7083;48.854;9.158;2022-10-16T13:43:21;1999.90;;;999.90;;
14015;SDS011;7083;48.854;9.158;2022-10-16T13:45:58;1999.90;;;999.90;;
14015;SDS011;7083;48.854;9.158;2022-10-16T13:48:27;1999.90;;;999.90;;
14015;SDS011;7083;48.854;9.158;2022-10-16T13:51:02;1999.90;;;999.90;;
14015;SDS011;7083;48.854;9.158;2022-10-16T13:53:31;1999.90;;;999.90;;
14015;SDS011;7083;48.854;9.158;2022-10-16T13:55:59;1607.33;;;526.80;;
14015;SDS011;7083;48.854;9.158;2022-10-16T13:58:27;1999.90;;;999.90;;
14015;SDS011;7083;48.854;9.158;2022-10-16T14:00:55;1999.90;;;999.90;;
14015;SDS011;7083;48.854;9.158;2022-10-16T14:03:23;1999.90;;;999.90;;
14015;SDS011;7083;48.854;9.158;2022-10-16T14:05:52;1999.90;;;999.90;;
14015;SDS011;7083;48.854;9.158;2022-10-16T14:08:21;1999.90;;;999.90;;
14015;SDS011;7083;48.854;9.158;2022-10-16T14:10:49;1999.90;;;999.90;;
14015;SDS011;7083;48.854;9.158;2022-10-16T14:13:18;1999.90;;;999.90;;
14015;SDS011;7083;48.854;9.158;2022-10-16T14:15:50;1999.90;;;999.90;;
14015;SDS011;7083;48.854;9.158;2022-10-16T14:18:20;1999.90;;;999.90;;
14015;SDS011;7083;48.854;9.158;2022-10-16T14:20:48;1999.90;;;800.83;;
14015;SDS011;7083;48.854;9.158;2022-10-16T14:23:20;1999.90;;;702.10;;
14015;SDS011;7083;48.854;9.158;2022-10-16T14:25:51;1999.90;;;999.90;;
14015;SDS011;7083;48.854;9.158;2022-10-16T14:28:18;1999.90;;;999.90;;
14015;SDS011;7083;48.854;9.158;2022-10-16T14:30:49;1881.50;;;852.57;;
14015;SDS011;7083;48.854;9.158;2022-10-16T14:33:20;1999.90;;;999.90;;
14015;SDS011;7083;48.854;9.158;2022-10-16T14:35:59;1999.90;;;999.90;;
14015;SDS011;7083;48.854;9.158;2022-10-16T14:38:29;1999.90;;;999.90;;
14015;SDS011;7083;48.854;9.158;2022-10-16T14:40:58;1670.83;;;776.00;;
14015;SDS011;7083;48.854;9.158;2022-10-16T14:43:28;1999.90;;;874.07;;
14015;SDS011;7083;48.854;9.158;2022-10-16T14:45:58;1999.90;;;855.17;;
14015;SDS011;7083;48.854;9.158;2022-10-16T14:48:25;1999.90;;;999.90;;
14015;SDS011;7083;48.854;9.158;2022-10-16T14:50:52;1999.90;;;999.90;;
14015;SDS011;7083;48.854;9.158;2022-10-16T14:53:19;1999.90;;;999.90;;